sensor_id;sensor_type;location;lat;lon;timestamp;P1;durP1;ratioP1;P2;durP2;ratioP2
2386;SDS011;49473;50.772;8.768;2022-08-18T00:01:42;8.63;;;7.93;;
2386;SDS011;49473;50.772;8.768;2022-08-18T00:04:13;8.07;;;7.47;;
2386;SDS011;49473;50.772;8.768;2022-08-18T00:06:40;8.30;;;7.80;;
2386;SDS011;49473;50.772;8.768;2022-08-18T00:09:08;9.10;;;7.50;;
2386;SDS011;49473;50.772;8.768;2022-08-18T00:11:37;9.50;;;8.70;;
2386;SDS011;49473;50.772;8.768;2022-08-18T00:14:05;8.93;;;8.30;;
2386;SDS011;49473;50.772;8.768;2022-08-18T00:16:32;9.73;;;9.10;;
2386;SDS011;49473;50.772;8.768;2022-08-18T00:19:00;8.57;;;8.03;;
2386;SDS011;49473;50.772;8.768;2022-08-18T00:21:27;9.43;;;8.60;;
2386;SDS011;49473;50.772;8.768;2022-08-18T00:23:54;8.83;;;8.20;;
2386;SDS011;49473;50.772;8.768;2022-08-18T00:26:21;9.63;;;8.73;;
2386;SDS011;49473;50.772;8.768;2022-08-18T00:28:47;9.20;;;8.50;;
2386;SDS011;49473;50.772;8.768;2022-08-18T00:31:14;9.93;;;9.13;;
2386;SDS011;49473;50.772;8.768;2022-08-18T00:33:41;10.43;;;9.73;;
2386;SDS011;49473;50.772;8.768;2022-08-18T00:36:10;9.97;;;9.27;;
2386;SDS011;49473;50.772;8.768;2022-08-18T00:38:38;9.20;;;8.60;;
2386;SDS011;49473;50.772;8.768;2022-08-18T00:41:05;9.17;;;8.43;;
2386;SDS011;49473;50.772;8.768;2022-08-18T00:43:35;9.83;;;9.13;;
2386;SDS011;49473;50.772;8.768;2022-08-18T00:46:06;9.03;;;8.43;;
2386;SDS011;49473;50.772;8.768;2022-08-18T00:48:34;10.90;;;10.00;;
2386;SDS011;49473;50.772;8.768;2022-08-18T00:51:02;10.40;;;9.70;;
2386;SDS011;49473;50.772;8.768;2022-08-18T00:53:37;10.43;;;9.60;;
2386;SDS011;49473;50.772;8.768;2022-08-18T00:56:11;9.97;;;9.20;;
2386;SDS011;49473;50.772;8.768;2022-08-18T00:58:42;10.17;;;9.50;;
2386;SDS011;49473;50.772;8.768;2022-08-18T01:01:12;10.60;;;9.90;;
2386;SDS011;49473;50.772;8.768;2022-08-18T01:03:41;11.10;;;10.20;;
2386;SDS011;49473;50.772;8.768;2022-08-18T01:06:10;10.17;;;9.43;;
2386;SDS011;49473;50.772;8.768;2022-08-18T01:08:43;11.30;;;10.50;;
2386;SDS011;49473;50.772;8.768;2022-08-18T01:11:10;10.00;;;9.20;;
2386;SDS011;49473;50.772;8.768;2022-08-18T01:13:37;10.03;;;9.43;;
2386;SDS011;49473;50.772;8.768;2022-08-18T01:16:06;11.17;;;10.30;;
2386;SDS011;49473;50.772;8.768;2022-08-18T01:18:47;12.13;;;11.13;;
2386;SDS011;49473;50.772;8.768;2022-08-18T01:21:32;10.53;;;9.83;;
2386;SDS011;49473;50.772;8.768;2022-08-18T01:24:19;9.80;;;9.20;;
2386;SDS011;49473;50.772;8.768;2022-08-18T01:27:10;12.90;;;11.90;;
2386;SDS011;49473;50.772;8.768;2022-08-18T01:29:41;13.10;;;12.17;;
2386;SDS011;49473;50.772;8.768;2022-08-18T01:32:09;12.70;;;11.80;;
2386;SDS011;49473;50.772;8.768;2022-08-18T01:34:39;12.33;;;11.33;;
2386;SDS011;49473;50.772;8.768;2022-08-18T01:37:07;12.40;;;11.50;;
2386;SDS011;49473;50.772;8.768;2022-08-18T01:39:35;13.20;;;12.20;;
2386;SDS011;49473;50.772;8.768;2022-08-18T01:42:02;13.10;;;12.10;;
2386;SDS011;49473;50.772;8.768;2022-08-18T01:44:30;13.83;;;12.93;;
2386;SDS011;49473;50.772;8.768;2022-08-18T01:46:57;13.10;;;12.20;;
2386;SDS011;49473;50.772;8.768;2022-08-18T01:49:24;12.23;;;11.20;;
2386;SDS011;49473;50.772;8.768;2022-08-18T01:51:52;13.70;;;12.70;;
2386;SDS011;49473;50.772;8.768;2022-08-18T01:54:19;13.13;;;12.03;;
2386;SDS011;49473;50.772;8.768;2022-08-18T01:56:48;13.47;;;12.57;;
2386;SDS011;49473;50.772;8.768;2022-08-18T01:59:17;14.33;;;13.30;;
2386;SDS011;49473;50.772;8.768;2022-08-18T02:01:45;15.07;;;13.87;;
2386;SDS011;49473;50.772;8.768;2022-08-18T02:04:12;13.90;;;12.90;;
2386;SDS011;49473;50.772;8.768;2022-08-18T02:06:40;14.57;;;13.30;;
2386;SDS011;49473;50.772;8.768;2022-08-18T02:09:07;12.83;;;11.93;;
2386;SDS011;49473;50.772;8.768;2022-08-18T02:11:34;12.57;;;11.70;;
2386;SDS011;49473;50.772;8.768;2022-08-18T02:14:02;13.77;;;12.83;;
2386;SDS011;49473;50.772;8.768;2022-08-18T02:16:29;13.90;;;12.80;;
2386;SDS011;49473;50.772;8.768;2022-08-18T02:18:57;13.83;;;12.63;;
2386;SDS011;49473;50.772;8.768;2022-08-18T02:21:24;12.37;;;11.50;;
2386;SDS011;49473;50.772;8.768;2022-08-18T02:23:51;13.00;;;12.10;;
2386;SDS011;49473;50.772;8.768;2022-08-18T02:26:17;12.90;;;12.00;;
2386;SDS011;49473;50.772;8.768;2022-08-18T02:28:44;12.90;;;12.00;;
2386;SDS011;49473;50.772;8.768;2022-08-18T02:31:13;13.17;;;12.27;;
2386;SDS011;49473;50.772;8.768;2022-08-18T02:33:41;13.23;;;12.13;;
2386;SDS011;49473;50.772;8.768;2022-08-18T02:36:09;13.60;;;12.70;;
2386;SDS011;49473;50.772;8.768;2022-08-18T02:38:36;13.70;;;12.60;;
2386;SDS011;49473;50.772;8.768;2022-08-18T02:41:04;12.87;;;11.97;;
2386;SDS011;49473;50.772;8.768;2022-08-18T02:43:33;13.43;;;12.43;;
2386;SDS011;49473;50.772;8.768;2022-08-18T02:46:02;13.97;;;13.00;;
2386;SDS011;49473;50.772;8.768;2022-08-18T02:48:31;14.30;;;13.20;;
2386;SDS011;49473;50.772;8.768;2022-08-18T02:51:02;13.70;;;12.77;;
2386;SDS011;49473;50.772;8.768;2022-08-18T02:53:30;14.17;;;13.17;;
2386;SDS011;49473;50.772;8.768;2022-08-18T02:56:03;14.70;;;13.70;;
2386;SDS011;49473;50.772;8.768;2022-08-18T02:58:39;13.50;;;12.70;;
2386;SDS011;49473;50.772;8.768;2022-08-18T03:01:06;13.37;;;12.37;;
2386;SDS011;49473;50.772;8.768;2022-08-18T03:03:34;14.90;;;13.90;;
2386;SDS011;49473;50.772;8.768;2022-08-18T03:06:01;14.90;;;13.80;;
2386;SDS011;49473;50.772;8.768;2022-08-18T03:08:28;15.20;;;14.00;;
2386;SDS011;49473;50.772;8.768;2022-08-18T03:10:56;15.97;;;14.60;;
2386;SDS011;49473;50.772;8.768;2022-08-18T03:13:23;14.63;;;13.53;;
2386;SDS011;49473;50.772;8.768;2022-08-18T03:15:50;14.53;;;13.53;;
2386;SDS011;49473;50.772;8.768;2022-08-18T03:18:16;13.50;;;12.60;;
2386;SDS011;49473;50.772;8.768;2022-08-18T03:20:45;14.13;;;13.03;;
2386;SDS011;49473;50.772;8.768;2022-08-18T03:23:11;15.63;;;14.53;;
2386;SDS011;49473;50.772;8.768;2022-08-18T03:25:43;15.07;;;13.97;;
2386;SDS011;49473;50.772;8.768;2022-08-18T03:28:11;15.87;;;14.37;;
2386;SDS011;49473;50.772;8.768;2022-08-18T03:30:37;15.30;;;14.10;;
2386;SDS011;49473;50.772;8.768;2022-08-18T03:33:04;15.73;;;14.60;;
2386;SDS011;49473;50.772;8.768;2022-08-18T03:35:33;15.07;;;14.07;;
2386;SDS011;49473;50.772;8.768;2022-08-18T03:38:02;15.73;;;14.33;;
2386;SDS011;49473;50.772;8.768;2022-08-18T03:40:29;14.87;;;13.87;;
2386;SDS011;49473;50.772;8.768;2022-08-18T03:42:55;16.03;;;14.93;;
2386;SDS011;49473;50.772;8.768;2022-08-18T03:45:22;15.30;;;14.30;;
2386;SDS011;49473;50.772;8.768;2022-08-18T03:47:52;16.00;;;14.80;;
2386;SDS011;49473;50.772;8.768;2022-08-18T03:50:20;17.47;;;16.17;;
2386;SDS011;49473;50.772;8.768;2022-08-18T03:52:49;17.13;;;15.90;;
2386;SDS011;49473;50.772;8.768;2022-08-18T03:55:17;16.60;;;15.40;;
2386;SDS011;49473;50.772;8.768;2022-08-18T03:57:44;17.00;;;15.80;;
2386;SDS011;49473;50.772;8.768;2022-08-18T04:00:12;16.60;;;15.27;;
2386;SDS011;49473;50.772;8.768;2022-08-18T04:02:39;16.90;;;15.67;;
2386;SDS011;49473;50.772;8.768;2022-08-18T04:05:06;16.23;;;14.93;;
2386;SDS011;49473;50.772;8.768;2022-08-18T04:07:35;16.90;;;15.70;;
2386;SDS011;49473;50.772;8.768;2022-08-18T04:10:02;17.20;;;15.90;;
2386;SDS011;49473;50.772;8.768;2022-08-18T04:12:30;17.40;;;15.70;;
2386;SDS011;49473;50.772;8.768;2022-08-18T04:14:57;17.30;;;15.90;;
2386;SDS011;49473;50.772;8.768;2022-08-18T04:17:24;16.57;;;15.43;;
2386;SDS011;49473;50.772;8.768;2022-08-18T04:19:50;17.93;;;16.57;;
2386;SDS011;49473;50.772;8.768;2022-08-18T04:22:17;17.13;;;15.93;;
2386;SDS011;49473;50.772;8.768;2022-08-18T04:24:45;16.47;;;15.33;;
2386;SDS011;49473;50.772;8.768;2022-08-18T04:27:12;16.57;;;15.37;;
2386;SDS011;49473;50.772;8.768;2022-08-18T04:29:40;15.87;;;14.73;;
2386;SDS011;49473;50.772;8.768;2022-08-18T04:32:07;16.20;;;15.13;;
2386;SDS011;49473;50.772;8.768;2022-08-18T04:34:34;17.00;;;15.70;;
2386;SDS011;49473;50.772;8.768;2022-08-18T04:37:01;16.13;;;15.03;;
2386;SDS011;49473;50.772;8.768;2022-08-18T04:39:28;17.73;;;16.33;;
2386;SDS011;49473;50.772;8.768;2022-08-18T04:41:55;16.90;;;15.70;;
2386;SDS011;49473;50.772;8.768;2022-08-18T04:44:23;16.57;;;15.30;;
2386;SDS011;49473;50.772;8.768;2022-08-18T04:46:52;15.37;;;14.27;;
2386;SDS011;49473;50.772;8.768;2022-08-18T04:49:20;16.67;;;15.57;;
2386;SDS011;49473;50.772;8.768;2022-08-18T04:51:50;15.97;;;14.87;;
2386;SDS011;49473;50.772;8.768;2022-08-18T04:54:37;16.73;;;15.53;;
2386;SDS011;49473;50.772;8.768;2022-08-18T04:57:08;16.23;;;15.00;;
2386;SDS011;49473;50.772;8.768;2022-08-18T04:59:36;16.23;;;14.70;;
2386;SDS011;49473;50.772;8.768;2022-08-18T05:02:06;16.83;;;15.67;;
2386;SDS011;49473;50.772;8.768;2022-08-18T05:04:34;15.40;;;14.10;;
2386;SDS011;49473;50.772;8.768;2022-08-18T05:07:03;15.20;;;14.03;;
2386;SDS011;49473;50.772;8.768;2022-08-18T05:09:30;15.23;;;14.13;;
2386;SDS011;49473;50.772;8.768;2022-08-18T05:11:57;15.50;;;14.40;;
2386;SDS011;49473;50.772;8.768;2022-08-18T05:14:24;15.13;;;13.93;;
2386;SDS011;49473;50.772;8.768;2022-08-18T05:16:51;13.23;;;12.23;;
2386;SDS011;49473;50.772;8.768;2022-08-18T05:19:20;15.90;;;14.60;;
2386;SDS011;49473;50.772;8.768;2022-08-18T05:21:47;13.80;;;12.90;;
2386;SDS011;49473;50.772;8.768;2022-08-18T05:24:14;14.63;;;13.40;;
2386;SDS011;49473;50.772;8.768;2022-08-18T05:26:41;15.17;;;14.07;;
2386;SDS011;49473;50.772;8.768;2022-08-18T05:29:09;14.30;;;13.27;;
2386;SDS011;49473;50.772;8.768;2022-08-18T05:31:36;14.20;;;13.00;;
2386;SDS011;49473;50.772;8.768;2022-08-18T05:34:03;13.70;;;12.80;;
2386;SDS011;49473;50.772;8.768;2022-08-18T05:36:38;13.67;;;12.73;;
2386;SDS011;49473;50.772;8.768;2022-08-18T05:39:19;12.77;;;11.87;;
2386;SDS011;49473;50.772;8.768;2022-08-18T05:41:49;13.80;;;12.87;;
2386;SDS011;49473;50.772;8.768;2022-08-18T05:44:21;13.13;;;12.23;;
2386;SDS011;49473;50.772;8.768;2022-08-18T05:46:52;13.97;;;12.97;;
2386;SDS011;49473;50.772;8.768;2022-08-18T05:49:20;13.97;;;13.03;;
2386;SDS011;49473;50.772;8.768;2022-08-18T05:51:52;13.53;;;12.60;;
2386;SDS011;49473;50.772;8.768;2022-08-18T05:54:21;13.60;;;12.60;;
2386;SDS011;49473;50.772;8.768;2022-08-18T05:57:09;12.73;;;11.83;;
2386;SDS011;49473;50.772;8.768;2022-08-18T05:59:40;13.63;;;12.73;;
2386;SDS011;49473;50.772;8.768;2022-08-18T06:02:10;15.30;;;13.97;;
2386;SDS011;49473;50.772;8.768;2022-08-18T06:04:42;13.97;;;13.07;;
2386;SDS011;49473;50.772;8.768;2022-08-18T06:07:16;15.90;;;14.70;;
2386;SDS011;49473;50.772;8.768;2022-08-18T06:09:52;17.77;;;16.40;;
2386;SDS011;49473;50.772;8.768;2022-08-18T06:12:22;17.23;;;15.93;;
2386;SDS011;49473;50.772;8.768;2022-08-18T06:14:53;16.03;;;14.90;;
2386;SDS011;49473;50.772;8.768;2022-08-18T06:20:39;16.73;;;15.37;;
2386;SDS011;49473;50.772;8.768;2022-08-18T06:23:21;16.43;;;15.20;;
2386;SDS011;49473;50.772;8.768;2022-08-18T06:25:57;17.13;;;15.83;;
2386;SDS011;49473;50.772;8.768;2022-08-18T06:28:35;16.33;;;15.13;;
2386;SDS011;49473;50.772;8.768;2022-08-18T06:31:14;17.70;;;16.40;;
2386;SDS011;49473;50.772;8.768;2022-08-18T06:33:47;17.40;;;15.77;;
2386;SDS011;49473;50.772;8.768;2022-08-18T06:36:24;18.20;;;16.60;;
2386;SDS011;49473;50.772;8.768;2022-08-18T06:39:03;16.30;;;14.90;;
2386;SDS011;49473;50.772;8.768;2022-08-18T06:41:37;20.27;;;18.77;;
2386;SDS011;49473;50.772;8.768;2022-08-18T06:44:08;17.40;;;16.10;;
2386;SDS011;49473;50.772;8.768;2022-08-18T06:46:41;17.63;;;16.43;;
2386;SDS011;49473;50.772;8.768;2022-08-18T06:49:15;20.23;;;18.73;;
2386;SDS011;49473;50.772;8.768;2022-08-18T06:51:47;20.83;;;18.93;;
2386;SDS011;49473;50.772;8.768;2022-08-18T06:54:26;19.00;;;17.33;;
2386;SDS011;49473;50.772;8.768;2022-08-18T06:56:55;18.10;;;16.50;;
2386;SDS011;49473;50.772;8.768;2022-08-18T06:59:23;18.50;;;17.20;;
2386;SDS011;49473;50.772;8.768;2022-08-18T07:01:53;19.50;;;18.17;;
2386;SDS011;49473;50.772;8.768;2022-08-18T07:07:28;20.10;;;18.50;;
2386;SDS011;49473;50.772;8.768;2022-08-18T07:09:58;20.43;;;18.93;;
2386;SDS011;49473;50.772;8.768;2022-08-18T07:12:26;20.00;;;18.50;;
2386;SDS011;49473;50.772;8.768;2022-08-18T07:14:54;21.23;;;19.73;;
2386;SDS011;49473;50.772;8.768;2022-08-18T07:17:24;22.77;;;21.00;;
2386;SDS011;49473;50.772;8.768;2022-08-18T07:19:53;23.10;;;21.07;;
2386;SDS011;49473;50.772;8.768;2022-08-18T07:22:22;22.47;;;20.70;;
2386;SDS011;49473;50.772;8.768;2022-08-18T07:24:50;22.33;;;20.60;;
2386;SDS011;49473;50.772;8.768;2022-08-18T07:27:21;20.03;;;18.43;;
2386;SDS011;49473;50.772;8.768;2022-08-18T07:30:06;21.63;;;19.63;;
2386;SDS011;49473;50.772;8.768;2022-08-18T07:32:35;21.90;;;20.23;;
2386;SDS011;49473;50.772;8.768;2022-08-18T07:35:08;22.73;;;20.93;;
2386;SDS011;49473;50.772;8.768;2022-08-18T07:37:39;21.30;;;19.60;;
2386;SDS011;49473;50.772;8.768;2022-08-18T07:40:13;21.10;;;19.43;;
2386;SDS011;49473;50.772;8.768;2022-08-18T07:42:50;21.27;;;19.53;;
2386;SDS011;49473;50.772;8.768;2022-08-18T07:45:21;21.33;;;19.80;;
2386;SDS011;49473;50.772;8.768;2022-08-18T07:47:54;21.67;;;19.97;;
2386;SDS011;49473;50.772;8.768;2022-08-18T07:50:27;21.67;;;19.93;;
2386;SDS011;49473;50.772;8.768;2022-08-18T07:53:02;21.67;;;20.07;;
2386;SDS011;49473;50.772;8.768;2022-08-18T07:55:37;21.10;;;19.40;;
2386;SDS011;49473;50.772;8.768;2022-08-18T07:58:13;21.50;;;20.07;;
2386;SDS011;49473;50.772;8.768;2022-08-18T08:00:46;22.23;;;20.43;;
2386;SDS011;49473;50.772;8.768;2022-08-18T08:03:23;21.53;;;19.93;;
2386;SDS011;49473;50.772;8.768;2022-08-18T08:05:58;19.70;;;18.30;;
2386;SDS011;49473;50.772;8.768;2022-08-18T08:08:32;22.80;;;21.20;;
2386;SDS011;49473;50.772;8.768;2022-08-18T08:11:06;24.17;;;22.37;;
2386;SDS011;49473;50.772;8.768;2022-08-18T08:13:58;22.27;;;20.57;;
2386;SDS011;49473;50.772;8.768;2022-08-18T08:16:35;26.50;;;24.60;;
2386;SDS011;49473;50.772;8.768;2022-08-18T08:19:09;25.80;;;23.60;;
2386;SDS011;49473;50.772;8.768;2022-08-18T08:21:59;22.83;;;21.23;;
2386;SDS011;49473;50.772;8.768;2022-08-18T08:24:30;23.77;;;21.83;;
2386;SDS011;49473;50.772;8.768;2022-08-18T08:27:07;26.50;;;24.40;;
2386;SDS011;49473;50.772;8.768;2022-08-18T08:29:43;24.97;;;23.07;;
2386;SDS011;49473;50.772;8.768;2022-08-18T08:32:15;24.23;;;22.33;;
2386;SDS011;49473;50.772;8.768;2022-08-18T08:34:51;23.93;;;22.23;;
2386;SDS011;49473;50.772;8.768;2022-08-18T08:37:23;23.27;;;21.50;;
2386;SDS011;49473;50.772;8.768;2022-08-18T08:39:59;25.83;;;23.73;;
2386;SDS011;49473;50.772;8.768;2022-08-18T08:42:34;28.07;;;25.87;;
2386;SDS011;49473;50.772;8.768;2022-08-18T08:45:07;28.50;;;26.33;;
2386;SDS011;49473;50.772;8.768;2022-08-18T08:47:38;27.37;;;25.17;;
2386;SDS011;49473;50.772;8.768;2022-08-18T08:50:10;27.20;;;25.20;;
2386;SDS011;49473;50.772;8.768;2022-08-18T08:52:41;23.87;;;21.87;;
2386;SDS011;49473;50.772;8.768;2022-08-18T08:55:13;23.47;;;21.77;;
2386;SDS011;49473;50.772;8.768;2022-08-18T08:57:47;21.87;;;20.20;;
2386;SDS011;49473;50.772;8.768;2022-08-18T09:00:20;22.40;;;20.80;;
2386;SDS011;49473;50.772;8.768;2022-08-18T09:02:56;25.10;;;23.07;;
2386;SDS011;49473;50.772;8.768;2022-08-18T09:05:48;24.47;;;22.20;;
2386;SDS011;49473;50.772;8.768;2022-08-18T09:08:31;23.50;;;21.30;;
2386;SDS011;49473;50.772;8.768;2022-08-18T09:14:13;22.40;;;20.50;;
2386;SDS011;49473;50.772;8.768;2022-08-18T09:16:59;22.90;;;20.83;;
2386;SDS011;49473;50.772;8.768;2022-08-18T09:19:45;22.10;;;20.30;;
2386;SDS011;49473;50.772;8.768;2022-08-18T09:22:25;22.23;;;20.27;;
2386;SDS011;49473;50.772;8.768;2022-08-18T09:25:01;20.30;;;18.50;;
2386;SDS011;49473;50.772;8.768;2022-08-18T09:27:37;24.43;;;22.37;;
2386;SDS011;49473;50.772;8.768;2022-08-18T09:30:07;24.70;;;22.50;;
2386;SDS011;49473;50.772;8.768;2022-08-18T09:32:57;25.97;;;23.37;;
2386;SDS011;49473;50.772;8.768;2022-08-18T09:35:42;24.20;;;22.00;;
2386;SDS011;49473;50.772;8.768;2022-08-18T09:38:25;23.67;;;21.57;;
2386;SDS011;49473;50.772;8.768;2022-08-18T09:41:15;22.20;;;20.40;;
2386;SDS011;49473;50.772;8.768;2022-08-18T09:43:58;23.20;;;21.50;;
2386;SDS011;49473;50.772;8.768;2022-08-18T09:46:50;22.47;;;20.57;;
2386;SDS011;49473;50.772;8.768;2022-08-18T09:58:18;16.53;;;15.43;;
2386;SDS011;49473;50.772;8.768;2022-08-18T10:00:45;17.07;;;15.77;;
2386;SDS011;49473;50.772;8.768;2022-08-18T10:06:54;16.10;;;14.93;;
2386;SDS011;49473;50.772;8.768;2022-08-18T10:09:43;16.30;;;15.10;;
2386;SDS011;49473;50.772;8.768;2022-08-18T10:12:39;18.03;;;16.93;;
2386;SDS011;49473;50.772;8.768;2022-08-18T10:15:31;17.30;;;15.80;;
2386;SDS011;49473;50.772;8.768;2022-08-18T10:18:11;17.50;;;15.87;;
2386;SDS011;49473;50.772;8.768;2022-08-18T10:21:01;15.73;;;14.73;;
2386;SDS011;49473;50.772;8.768;2022-08-18T10:23:44;15.90;;;14.70;;
2386;SDS011;49473;50.772;8.768;2022-08-18T10:29:50;14.80;;;13.80;;
2386;SDS011;49473;50.772;8.768;2022-08-18T10:38:18;16.30;;;15.20;;
2386;SDS011;49473;50.772;8.768;2022-08-18T10:40:53;14.43;;;13.43;;
2386;SDS011;49473;50.772;8.768;2022-08-18T10:43:27;14.63;;;13.73;;
2386;SDS011;49473;50.772;8.768;2022-08-18T10:46:02;15.97;;;14.87;;
2386;SDS011;49473;50.772;8.768;2022-08-18T10:48:31;16.07;;;14.97;;
2386;SDS011;49473;50.772;8.768;2022-08-18T10:51:01;15.30;;;14.03;;
2386;SDS011;49473;50.772;8.768;2022-08-18T10:53:34;18.30;;;16.93;;
2386;SDS011;49473;50.772;8.768;2022-08-18T10:56:09;16.53;;;15.33;;
2386;SDS011;49473;50.772;8.768;2022-08-18T10:58:49;17.07;;;15.77;;
2386;SDS011;49473;50.772;8.768;2022-08-18T11:01:44;19.13;;;17.80;;
2386;SDS011;49473;50.772;8.768;2022-08-18T11:04:23;17.17;;;16.07;;
2386;SDS011;49473;50.772;8.768;2022-08-18T11:06:54;19.30;;;18.00;;
2386;SDS011;49473;50.772;8.768;2022-08-18T11:09:28;18.67;;;17.37;;
2386;SDS011;49473;50.772;8.768;2022-08-18T11:11:58;20.10;;;18.50;;
2386;SDS011;49473;50.772;8.768;2022-08-18T11:14:34;20.00;;;18.63;;
2386;SDS011;49473;50.772;8.768;2022-08-18T11:17:32;19.87;;;18.47;;
2386;SDS011;49473;50.772;8.768;2022-08-18T11:20:12;22.03;;;20.53;;
2386;SDS011;49473;50.772;8.768;2022-08-18T11:22:48;22.83;;;21.20;;
2386;SDS011;49473;50.772;8.768;2022-08-18T11:25:19;21.20;;;19.80;;
2386;SDS011;49473;50.772;8.768;2022-08-18T11:27:53;23.13;;;21.50;;
2386;SDS011;49473;50.772;8.768;2022-08-18T11:30:20;21.87;;;20.37;;
2386;SDS011;49473;50.772;8.768;2022-08-18T11:32:50;21.23;;;19.83;;
2386;SDS011;49473;50.772;8.768;2022-08-18T11:35:19;20.73;;;19.20;;
2386;SDS011;49473;50.772;8.768;2022-08-18T11:37:48;20.73;;;19.43;;
2386;SDS011;49473;50.772;8.768;2022-08-18T11:40:31;21.10;;;19.60;;
2386;SDS011;49473;50.772;8.768;2022-08-18T11:43:02;22.53;;;20.87;;
2386;SDS011;49473;50.772;8.768;2022-08-18T11:48:20;18.73;;;17.33;;
2386;SDS011;49473;50.772;8.768;2022-08-18T11:50:58;18.47;;;17.07;;
2386;SDS011;49473;50.772;8.768;2022-08-18T11:53:37;19.00;;;17.70;;
2386;SDS011;49473;50.772;8.768;2022-08-18T11:56:22;18.87;;;17.50;;
2386;SDS011;49473;50.772;8.768;2022-08-18T11:58:53;18.80;;;17.40;;
2386;SDS011;49473;50.772;8.768;2022-08-18T12:01:29;18.73;;;17.47;;
2386;SDS011;49473;50.772;8.768;2022-08-18T12:04:09;18.77;;;17.37;;
2386;SDS011;49473;50.772;8.768;2022-08-18T12:06:52;18.50;;;17.20;;
2386;SDS011;49473;50.772;8.768;2022-08-18T12:09:25;22.10;;;20.30;;
2386;SDS011;49473;50.772;8.768;2022-08-18T12:11:57;20.73;;;19.27;;
2386;SDS011;49473;50.772;8.768;2022-08-18T12:14:28;22.90;;;21.20;;
2386;SDS011;49473;50.772;8.768;2022-08-18T12:16:57;20.13;;;18.83;;
2386;SDS011;49473;50.772;8.768;2022-08-18T12:19:24;19.30;;;18.00;;
2386;SDS011;49473;50.772;8.768;2022-08-18T12:21:55;20.37;;;18.87;;
2386;SDS011;49473;50.772;8.768;2022-08-18T12:24:25;19.20;;;17.80;;
2386;SDS011;49473;50.772;8.768;2022-08-18T12:26:53;20.87;;;19.47;;
2386;SDS011;49473;50.772;8.768;2022-08-18T12:29:21;19.60;;;18.07;;
2386;SDS011;49473;50.772;8.768;2022-08-18T12:31:50;24.27;;;22.47;;
2386;SDS011;49473;50.772;8.768;2022-08-18T12:34:23;24.50;;;22.70;;
2386;SDS011;49473;50.772;8.768;2022-08-18T12:36:51;22.73;;;21.03;;
2386;SDS011;49473;50.772;8.768;2022-08-18T12:39:20;19.67;;;18.33;;
2386;SDS011;49473;50.772;8.768;2022-08-18T12:41:47;22.93;;;21.30;;
2386;SDS011;49473;50.772;8.768;2022-08-18T12:44:13;20.67;;;19.37;;
2386;SDS011;49473;50.772;8.768;2022-08-18T12:46:41;23.70;;;22.00;;
2386;SDS011;49473;50.772;8.768;2022-08-18T12:49:10;20.00;;;18.50;;
2386;SDS011;49473;50.772;8.768;2022-08-18T12:51:41;19.63;;;18.33;;
2386;SDS011;49473;50.772;8.768;2022-08-18T12:54:07;19.17;;;17.80;;
2386;SDS011;49473;50.772;8.768;2022-08-18T12:56:34;17.40;;;16.23;;
2386;SDS011;49473;50.772;8.768;2022-08-18T12:59:03;15.17;;;14.07;;
2386;SDS011;49473;50.772;8.768;2022-08-18T13:01:33;14.30;;;13.40;;
2386;SDS011;49473;50.772;8.768;2022-08-18T13:04:02;14.13;;;13.20;;
2386;SDS011;49473;50.772;8.768;2022-08-18T13:06:31;12.57;;;11.80;;
2386;SDS011;49473;50.772;8.768;2022-08-18T13:09:00;11.17;;;10.53;;
2386;SDS011;49473;50.772;8.768;2022-08-18T13:11:27;14.07;;;12.90;;
2386;SDS011;49473;50.772;8.768;2022-08-18T13:13:54;13.30;;;12.30;;
2386;SDS011;49473;50.772;8.768;2022-08-18T13:16:21;12.43;;;11.63;;
2386;SDS011;49473;50.772;8.768;2022-08-18T13:18:48;13.00;;;12.10;;
2386;SDS011;49473;50.772;8.768;2022-08-18T13:21:15;12.00;;;11.10;;
2386;SDS011;49473;50.772;8.768;2022-08-18T13:23:43;13.43;;;12.47;;
2386;SDS011;49473;50.772;8.768;2022-08-18T13:26:15;13.00;;;11.87;;
2386;SDS011;49473;50.772;8.768;2022-08-18T13:28:46;12.57;;;11.67;;
2386;SDS011;49473;50.772;8.768;2022-08-18T13:31:13;12.80;;;12.00;;
2386;SDS011;49473;50.772;8.768;2022-08-18T13:33:41;12.33;;;11.53;;
2386;SDS011;49473;50.772;8.768;2022-08-18T13:36:07;11.77;;;11.07;;
2386;SDS011;49473;50.772;8.768;2022-08-18T13:38:34;12.33;;;11.63;;
2386;SDS011;49473;50.772;8.768;2022-08-18T13:41:03;12.80;;;12.00;;
2386;SDS011;49473;50.772;8.768;2022-08-18T13:43:30;12.57;;;11.87;;
2386;SDS011;49473;50.772;8.768;2022-08-18T13:45:59;13.30;;;12.50;;
2386;SDS011;49473;50.772;8.768;2022-08-18T13:48:26;14.23;;;13.20;;
2386;SDS011;49473;50.772;8.768;2022-08-18T13:50:54;13.13;;;12.37;;
2386;SDS011;49473;50.772;8.768;2022-08-18T13:53:23;14.50;;;13.50;;
2386;SDS011;49473;50.772;8.768;2022-08-18T13:55:51;13.57;;;12.77;;
2386;SDS011;49473;50.772;8.768;2022-08-18T13:58:19;14.17;;;13.33;;
2386;SDS011;49473;50.772;8.768;2022-08-18T14:00:46;13.07;;;12.27;;
2386;SDS011;49473;50.772;8.768;2022-08-18T14:03:16;13.20;;;12.40;;
2386;SDS011;49473;50.772;8.768;2022-08-18T14:05:43;13.20;;;12.40;;
2386;SDS011;49473;50.772;8.768;2022-08-18T14:08:09;12.60;;;11.77;;
2386;SDS011;49473;50.772;8.768;2022-08-18T14:10:36;13.40;;;12.60;;
2386;SDS011;49473;50.772;8.768;2022-08-18T14:13:03;13.30;;;12.50;;
2386;SDS011;49473;50.772;8.768;2022-08-18T14:15:32;13.63;;;12.70;;
2386;SDS011;49473;50.772;8.768;2022-08-18T14:18:02;13.77;;;12.77;;
2386;SDS011;49473;50.772;8.768;2022-08-18T14:20:29;13.83;;;12.90;;
2386;SDS011;49473;50.772;8.768;2022-08-18T14:23:28;13.70;;;12.87;;
2386;SDS011;49473;50.772;8.768;2022-08-18T14:26:13;14.57;;;13.67;;
2386;SDS011;49473;50.772;8.768;2022-08-18T14:28:57;14.40;;;13.60;;
2386;SDS011;49473;50.772;8.768;2022-08-18T14:31:25;14.80;;;13.80;;
2386;SDS011;49473;50.772;8.768;2022-08-18T14:33:52;13.43;;;12.43;;
2386;SDS011;49473;50.772;8.768;2022-08-18T14:36:19;13.73;;;12.83;;
2386;SDS011;49473;50.772;8.768;2022-08-18T14:38:48;15.57;;;14.27;;
2386;SDS011;49473;50.772;8.768;2022-08-18T14:41:14;14.63;;;13.70;;
2386;SDS011;49473;50.772;8.768;2022-08-18T14:43:42;13.80;;;12.87;;
2386;SDS011;49473;50.772;8.768;2022-08-18T14:46:09;13.87;;;12.90;;
2386;SDS011;49473;50.772;8.768;2022-08-18T14:48:37;15.50;;;14.30;;
2386;SDS011;49473;50.772;8.768;2022-08-18T14:51:05;14.77;;;13.77;;
2386;SDS011;49473;50.772;8.768;2022-08-18T14:53:34;14.57;;;13.60;;
2386;SDS011;49473;50.772;8.768;2022-08-18T14:56:02;15.50;;;14.20;;
2386;SDS011;49473;50.772;8.768;2022-08-18T14:58:30;15.27;;;14.17;;
2386;SDS011;49473;50.772;8.768;2022-08-18T15:00:58;15.73;;;14.73;;
2386;SDS011;49473;50.772;8.768;2022-08-18T15:03:28;14.87;;;13.80;;
2386;SDS011;49473;50.772;8.768;2022-08-18T15:05:57;14.60;;;13.60;;
2386;SDS011;49473;50.772;8.768;2022-08-18T15:08:25;16.90;;;15.70;;
2386;SDS011;49473;50.772;8.768;2022-08-18T15:10:52;14.30;;;13.40;;
2386;SDS011;49473;50.772;8.768;2022-08-18T15:13:19;15.30;;;14.30;;
2386;SDS011;49473;50.772;8.768;2022-08-18T15:15:46;13.50;;;12.60;;
2386;SDS011;49473;50.772;8.768;2022-08-18T15:18:13;14.80;;;13.80;;
2386;SDS011;49473;50.772;8.768;2022-08-18T15:20:40;16.47;;;15.37;;
2386;SDS011;49473;50.772;8.768;2022-08-18T15:23:22;15.23;;;14.03;;
2386;SDS011;49473;50.772;8.768;2022-08-18T15:26:06;15.47;;;14.47;;
2386;SDS011;49473;50.772;8.768;2022-08-18T15:28:34;14.20;;;13.30;;
2386;SDS011;49473;50.772;8.768;2022-08-18T15:31:02;14.60;;;13.80;;
2386;SDS011;49473;50.772;8.768;2022-08-18T15:33:29;14.93;;;13.90;;
2386;SDS011;49473;50.772;8.768;2022-08-18T15:35:57;16.17;;;15.00;;